Hall, New York
Current Conditions -  °F | °C
As of 11:53 AM on Saturday 22 Nov 2014 (Local Time) from KPEO Reporting Station
Overcast Overcast  
Wind Chill: 29°   Ceiling: 6000
Heat Index: 38°   Visibility: 10mi
Dew Point: 10°   Wind: 17mph
Humidity: 32%   Direction: 210°SSW
Pressure: 30.11"   Gusts: 26mph
Location:  42.79°N, 77.07°W
Report Text: KPEO 221653Z AUTO 21015G23KT 10SM BKN060 OVC120 03/M12 A3011 RMK AO2 SLP206 T00331122
Loading
Personal Weather Stations






























Interactive Weather Map New forecast layout! Learn more

10-Day Weather Forecast

Advertisements
Track Severe Weather on mobile